createdAt,value
2022-11-30T00:00:37.561Z,100820.28
2022-11-30T00:06:05.653Z,100817.78
2022-11-30T00:11:29.968Z,100822.16
2022-11-30T00:16:53.195Z,100819.56
2022-11-30T00:22:14.746Z,100831.03
2022-11-30T00:27:36.825Z,100825.19
2022-11-30T00:33:00.685Z,100828.00
2022-11-30T00:38:22.931Z,100834.38
2022-11-30T00:43:45.128Z,100844.88
2022-11-30T00:49:11.435Z,100843.66
2022-11-30T00:54:33.130Z,100848.88
2022-11-30T00:59:54.876Z,100849.81
2022-11-30T01:05:18.301Z,100847.50
2022-11-30T01:10:42.193Z,100847.19
2022-11-30T01:16:10.403Z,100854.16
2022-11-30T01:21:33.532Z,100855.19
2022-11-30T01:26:55.085Z,100857.69
2022-11-30T01:32:17.537Z,100848.41
2022-11-30T01:37:42.214Z,100861.75
2022-11-30T01:43:04.941Z,100848.06
2022-11-30T01:48:26.489Z,100853.56
2022-11-30T01:53:50.283Z,100853.91
2022-11-30T01:59:13.021Z,100852.22
2022-11-30T02:04:37.453Z,100854.19
2022-11-30T02:10:01.543Z,100859.88
2022-11-30T02:15:32.176Z,100846.88
2022-11-30T02:21:06.132Z,100854.38
2022-11-30T02:26:47.862Z,100851.22
2022-11-30T02:32:16.252Z,100853.00
2022-11-30T02:37:39.834Z,100851.44
2022-11-30T02:43:04.804Z,100849.03
2022-11-30T02:48:34.329Z,100851.63
2022-11-30T02:53:57.433Z,100855.91
2022-11-30T02:59:19.307Z,100853.38
2022-11-30T03:04:43.333Z,100864.66
2022-11-30T03:10:06.429Z,100863.28
2022-11-30T03:15:28.889Z,100863.41
2022-11-30T03:20:52.070Z,100874.16
2022-11-30T03:26:14.008Z,100877.03
2022-11-30T03:31:35.479Z,100872.44
2022-11-30T03:36:58.604Z,100877.63
2022-11-30T03:42:20.576Z,100885.44
2022-11-30T03:47:42.418Z,100886.66
2022-11-30T03:53:05.853Z,100890.19
2022-11-30T03:58:27.889Z,100899.78
2022-11-30T04:03:50.277Z,100894.84
2022-11-30T04:09:13.876Z,100903.69
2022-11-30T04:14:35.354Z,100901.19
2022-11-30T04:19:56.794Z,100899.59
2022-11-30T04:25:22.309Z,100893.47
2022-11-30T04:30:44.762Z,100904.69
2022-11-30T04:36:09.286Z,100898.47
2022-11-30T04:41:32.109Z,100894.75
2022-11-30T04:46:54.329Z,100898.84
2022-11-30T04:52:15.916Z,100903.41
2022-11-30T04:57:39.742Z,100891.53
2022-11-30T05:03:04.390Z,100899.94
2022-11-30T05:08:26.509Z,100900.06
2022-11-30T05:13:49.680Z,100907.59
2022-11-30T05:19:13.015Z,100910.34
2022-11-30T05:24:34.836Z,100917.16
2022-11-30T05:29:57.891Z,100911.88
2022-11-30T05:35:19.751Z,100921.44
2022-11-30T05:40:41.312Z,100920.16
2022-11-30T05:46:06.840Z,100926.56
2022-11-30T05:51:28.337Z,100929.44
2022-11-30T05:56:54.461Z,100931.50
2022-11-30T06:02:18.099Z,100937.91
2022-11-30T06:07:40.427Z,100944.78
2022-11-30T06:13:07.893Z,100948.03
2022-11-30T06:18:31.185Z,100940.50
2022-11-30T06:23:53.501Z,100950.63
2022-11-30T06:29:15.482Z,100948.50
2022-11-30T06:34:38.708Z,100958.97
2022-11-30T06:40:07.977Z,100955.38
2022-11-30T06:45:31.862Z,100970.06
2022-11-30T06:50:54.740Z,100973.47
2022-11-30T06:56:16.323Z,100984.72
2022-11-30T07:01:38.221Z,100990.69
2022-11-30T07:07:01.592Z,100980.75
2022-11-30T07:12:23.033Z,100981.28
2022-11-30T07:17:44.571Z,100992.63
2022-11-30T07:23:21.777Z,100997.81
2022-11-30T07:28:46.289Z,101000.25
2022-11-30T07:34:10.057Z,100996.91
2022-11-30T07:39:33.493Z,100997.91
2022-11-30T07:44:58.808Z,100998.47
2022-11-30T07:50:20.788Z,101001.34
2022-11-30T07:55:44.549Z,101004.22
2022-11-30T08:01:08.546Z,100994.75
2022-11-30T08:06:32.725Z,101007.47
2022-11-30T08:11:56.244Z,101012.84
2022-11-30T08:17:17.979Z,101012.78
2022-11-30T08:22:42.900Z,101016.03
2022-11-30T08:28:06.705Z,101021.78
2022-11-30T08:33:30.876Z,101022.75
2022-11-30T08:38:52.747Z,101014.84
2022-11-30T08:44:15.843Z,101014.94
2022-11-30T08:49:37.653Z,101025.63
2022-11-30T08:54:59.352Z,101031.47
2022-11-30T09:00:22.943Z,101030.47
2022-11-30T09:05:44.917Z,101029.72
2022-11-30T09:11:11.193Z,101033.72
2022-11-30T09:16:34.165Z,101034.22
2022-11-30T09:21:55.967Z,101033.53
2022-11-30T09:27:17.499Z,101039.97
2022-11-30T09:32:40.556Z,101031.97
2022-11-30T09:38:05.140Z,101039.53
2022-11-30T09:43:36.707Z,101050.50
2022-11-30T09:49:04.389Z,101047.22
2022-11-30T09:54:35.638Z,101057.72
2022-11-30T09:59:59.578Z,101052.03
2022-11-30T10:05:28.276Z,101049.28
2022-11-30T10:11:00.445Z,101043.59
2022-11-30T10:16:33.311Z,101047.59
2022-11-30T10:22:07.375Z,101048.50
2022-11-30T10:27:42.164Z,101045.91
2022-11-30T10:33:12.270Z,101049.28
2022-11-30T10:38:40.672Z,101055.97
2022-11-30T10:44:08.863Z,101049.16
2022-11-30T10:49:33.122Z,101046.00
2022-11-30T10:55:04.127Z,101044.28
2022-11-30T11:00:26.900Z,101031.59
2022-11-30T11:05:49.250Z,101035.22
2022-11-30T11:11:36.701Z,101032.38
2022-11-30T11:17:03.410Z,101033.56
2022-11-30T11:22:27.711Z,101035.97
2022-11-30T11:27:55.245Z,101028.34
2022-11-30T11:33:22.959Z,101027.16
2022-11-30T11:38:47.252Z,101032.38
2022-11-30T11:44:22.488Z,101035.47
2022-11-30T11:49:44.341Z,101027.28
2022-11-30T11:55:11.408Z,101035.13
2022-11-30T12:00:34.869Z,101032.38
2022-11-30T12:06:01.744Z,101030.19
2022-11-30T12:11:29.956Z,101044.69
2022-11-30T12:17:14.786Z,101040.94
2022-11-30T12:22:53.242Z,101030.41
2022-11-30T12:28:26.381Z,101033.88
2022-11-30T12:34:07.021Z,101035.06
2022-11-30T12:39:38.991Z,101043.69
2022-11-30T12:45:12.773Z,101037.63
2022-11-30T12:51:01.631Z,101031.28
2022-11-30T12:56:32.324Z,101026.34
2022-11-30T13:02:11.920Z,101019.88
2022-11-30T13:07:43.768Z,101036.66
2022-11-30T13:13:07.572Z,101041.44
2022-11-30T13:18:30.404Z,101045.88
2022-11-30T13:23:58.644Z,101051.56
2022-11-30T13:29:47.626Z,101053.47
2022-11-30T13:35:44.574Z,101060.09
2022-11-30T13:41:10.034Z,101057.25
2022-11-30T13:46:31.851Z,101056.78
2022-11-30T13:52:20.857Z,101056.16
2022-11-30T13:58:08.871Z,101055.31
2022-11-30T14:03:31.589Z,101056.72
2022-11-30T14:08:53.457Z,101060.84
2022-11-30T14:14:46.353Z,101072.16
2022-11-30T14:20:17.948Z,101079.09
2022-11-30T14:25:45.626Z,101084.09
2022-11-30T14:31:12.267Z,101079.66
2022-11-30T14:36:37.216Z,101081.97
2022-11-30T14:42:02.174Z,101080.16
2022-11-30T14:47:28.831Z,101087.66
2022-11-30T14:53:01.843Z,101089.38
2022-11-30T14:58:32.378Z,101094.19
2022-11-30T15:03:58.497Z,101098.91
2022-11-30T15:09:22.697Z,101089.94
2022-11-30T15:15:03.243Z,101096.41
2022-11-30T15:20:30.571Z,101095.22
2022-11-30T15:25:59.084Z,101093.06
2022-11-30T15:31:21.323Z,101103.88
2022-11-30T15:36:44.838Z,101105.22
2022-11-30T15:42:18.930Z,101105.44
2022-11-30T15:47:40.604Z,101112.09
2022-11-30T15:53:05.476Z,101119.44
2022-11-30T15:58:30.809Z,101123.28
2022-11-30T16:04:07.045Z,101115.66
2022-11-30T16:09:33.391Z,101121.94
2022-11-30T16:14:55.289Z,101125.75
2022-11-30T16:20:18.081Z,101127.94
2022-11-30T16:25:42.438Z,101122.91
2022-11-30T16:31:04.108Z,101128.41
2022-11-30T16:36:26.074Z,101127.69
2022-11-30T16:41:49.592Z,101135.91
2022-11-30T16:47:11.078Z,101135.38
2022-11-30T16:52:34.382Z,101141.72
2022-11-30T16:57:57.505Z,101144.69
2022-11-30T17:03:23.007Z,101155.41
2022-11-30T17:08:44.701Z,101154.72
2022-11-30T17:14:08.129Z,101166.38
2022-11-30T17:19:30.196Z,101171.19
2022-11-30T17:24:52.120Z,101179.47
2022-11-30T17:30:17.754Z,101179.78
2022-11-30T17:35:40.107Z,101194.03
2022-11-30T17:41:02.406Z,101190.16
2022-11-30T17:46:25.873Z,101202.66
2022-11-30T17:51:47.837Z,101204.31
2022-11-30T17:57:10.425Z,101213.53
2022-11-30T18:02:33.590Z,101220.88
2022-11-30T18:07:55.671Z,101217.66
2022-11-30T18:13:19.555Z,101223.28
2022-11-30T18:18:47.797Z,101233.09
2022-11-30T18:24:13.648Z,101233.63
2022-11-30T18:29:35.574Z,101241.91
2022-11-30T18:34:58.755Z,101244.97
2022-11-30T18:40:20.780Z,101246.97
2022-11-30T18:45:42.680Z,101259.13
2022-11-30T18:51:12.685Z,101263.44
2022-11-30T18:56:36.342Z,101268.78
2022-11-30T19:01:59.502Z,101267.50
2022-11-30T19:07:22.988Z,101291.78
2022-11-30T19:12:46.832Z,101292.81
2022-11-30T19:18:09.195Z,101298.44
2022-11-30T19:23:32.303Z,101294.56
2022-11-30T19:28:55.454Z,101290.47
2022-11-30T19:34:16.934Z,101288.78
2022-11-30T19:39:39.952Z,101283.59
2022-11-30T19:45:01.823Z,101278.78
2022-11-30T19:50:24.680Z,101281.16
2022-11-30T19:55:48.211Z,101280.00
2022-11-30T20:01:13.433Z,101282.53
2022-11-30T20:06:37.199Z,101292.44
2022-11-30T20:12:00.277Z,101289.59
2022-11-30T20:17:21.850Z,101290.16
2022-11-30T20:22:43.879Z,101303.59
2022-11-30T20:28:12.278Z,101291.56
2022-11-30T20:33:35.487Z,101300.75
2022-11-30T20:38:57.127Z,101303.03
2022-11-30T20:44:20.207Z,101302.72
2022-11-30T20:49:42.046Z,101301.50
2022-11-30T20:55:04.142Z,101295.41
2022-11-30T21:00:27.388Z,101295.16
2022-11-30T21:06:00.846Z,101305.84
2022-11-30T21:11:31.552Z,101309.16
2022-11-30T21:17:21.872Z,101322.00
2022-11-30T21:22:44.015Z,101316.13
2022-11-30T21:28:05.930Z,101323.78
2022-11-30T21:33:29.238Z,101330.88
2022-11-30T21:38:59.546Z,101325.38
2022-11-30T21:44:24.849Z,101329.06
2022-11-30T21:49:48.464Z,101319.28
2022-11-30T21:55:11.178Z,101330.06
2022-11-30T22:00:32.745Z,101321.56
2022-11-30T22:06:03.133Z,101326.75
2022-11-30T22:11:24.959Z,101324.00
2022-11-30T22:16:47.023Z,101332.00
2022-11-30T22:22:10.315Z,101332.69
2022-11-30T22:27:33.084Z,101345.00
2022-11-30T22:32:54.764Z,101345.81
2022-11-30T22:38:17.749Z,101351.09
2022-11-30T22:43:39.425Z,101345.91
2022-11-30T22:49:01.877Z,101343.78
2022-11-30T22:54:24.770Z,101344.13
2022-11-30T22:59:46.933Z,101344.09
2022-11-30T23:05:09.109Z,101341.50
2022-11-30T23:10:32.193Z,101337.28
2022-11-30T23:15:54.291Z,101337.28
2022-11-30T23:21:18.684Z,101339.88
2022-11-30T23:26:43.111Z,101332.06
2022-11-30T23:32:05.219Z,101341.31
2022-11-30T23:37:27.114Z,101344.81
2022-11-30T23:42:53.548Z,101345.63
2022-11-30T23:48:15.205Z,101344.34
2022-11-30T23:53:36.827Z,101336.38
2022-11-30T23:59:00.047Z,101344.53
